This is the latest recevied weather packets stored in our database for station/object KU9TRY. If no packets are shown the sender has not sent any weather packets the latest 10 day(s).
| Time | Temp. | Humidity | Pressure | Rain* | Wind** | Luminosity | Snow |
|---|---|---|---|---|---|---|---|
| 1787774084 | 28.89° C | 70% | 1015.5 hPa | 0 mm | - | 167 W/m² | - |
| 1787773782 | 28.89° C | 68% | 1015.6 hPa | 0 mm | - | 189 W/m² | - |
| 1787773476 | 28.33° C | 68% | 1015.7 hPa | 0 mm | - | 207 W/m² | - |
| 1787773172 | 28.33° C | 68% | 1015.8 hPa | 0 mm | - | 210 W/m² | - |
| 1787772868 | 28.33° C | 66% | 1015.8 hPa | 0 mm | - | 207 W/m² | - |
| 1787772567 | 28.33° C | 66% | 1015.9 hPa | 0 mm | - | 206 W/m² | - |
| 1787772261 | 27.78° C | 68% | 1016.1 hPa | 0 mm | - | 224 W/m² | - |
| 1787771960 | 27.78° C | 67% | 1016.2 hPa | 0 mm | - | 206 W/m² | - |
| 1787771655 | 27.78° C | 67% | 1016.1 hPa | 0 mm | - | 193 W/m² | - |
| 1787771355 | 27.78° C | 68% | 1016.4 hPa | 0 mm | - | 168 W/m² | - |
| 1787771049 | 27.78° C | 70% | 1016.5 hPa | 0 mm | - | 150 W/m² | - |
| 1787770749 | 28.33° C | 67% | 1016.4 hPa | 0 mm | - | 153 W/m² | - |
| 1787770443 | 28.33° C | 64% | 1016.4 hPa | 0 mm | - | 164 W/m² | - |
| 1787770142 | 28.33° C | 65% | 1016.5 hPa | 0 mm | - | 185 W/m² | - |
| 1787769836 | 28.33° C | 64% | 1016.4 hPa | 0 mm | - | 194 W/m² | - |
| 1787769536 | 29.44° C | 63% | 1016.2 hPa | 0 mm | - | 198 W/m² | - |
| 1787769230 | 29.44° C | 61% | 1016.4 hPa | 0 mm | - | 193 W/m² | - |
| 1787768929 | 29.44° C | 60% | 1016.2 hPa | 0 mm | - | 242 W/m² | - |
| 1787768625 | 29.44° C | 51% | 1016.3 hPa | 0 mm | - | 270 W/m² | - |
| 1787768322 | 29.44° C | 53% | 1016.4 hPa | 0 mm | - | 294 W/m² | - |
| 1787768018 | 29.44° C | 64% | 1016.5 hPa | 0 mm | - | 295 W/m² | - |
| 1787767717 | 29.44° C | 53% | 1016.5 hPa | 0 mm | - | 315 W/m² | - |
| 1787767418 | 28.89° C | 58% | 1016.6 hPa | 0 mm | - | 317 W/m² | - |
| 1787767116 | 28.89° C | 66% | 1016.7 hPa | 0 mm | - | 317 W/m² | - |
| 1787766815 | 28.89° C | 64% | 1016.6 hPa | 0 mm | - | 292 W/m² | - |
* Rain latest hour (hover to see other rain measurements)
** Current wind speed in m/s (hover to see current wind gust speed)